Time,TemperatureF,DewpointF,PressureIn,WindDirection,WindDirectionDegrees,WindSpeedMPH,WindSpeedGustMPH,Humidity,HourlyPrecipIn,Conditions,Clouds,dailyrainin,SolarRadiationWatts/m^2,SoftwareType,DateUTC
2013-02-23 00:01:00,32.0,32.0,-100.00,SW,222,0.0,1.0,100,0.00,,,0.00,0.000000,,2013-02-23 09:01:00,
2013-02-23 00:11:00,32.0,32.0,-100.00,SW,222,0.0,1.0,100,0.00,,,0.00,0.000000,,2013-02-23 09:11:00,
2013-02-23 00:21:00,32.0,32.0,-100.00,SW,222,0.0,1.0,100,0.00,,,0.00,0.000000,,2013-02-23 09:21:00,
2013-02-23 00:42:00,32.0,32.0,-100.00,SSW,210,0.0,1.0,100,0.00,,,0.00,0.000000,,2013-02-23 09:42:00,
2013-02-23 00:52:00,32.0,32.0,-100.00,SSW,210,0.0,1.0,100,0.00,,,0.00,0.000000,,2013-02-23 09:52:00,
2013-02-23 01:01:00,32.0,32.0,-100.00,SSW,210,0.0,1.0,100,0.00,,,0.00,0.000000,,2013-02-23 10:01:00,
2013-02-23 01:11:00,32.0,32.0,-100.00,SSW,210,0.0,1.0,100,0.00,,,0.00,0.000000,,2013-02-23 10:11:00,
2013-02-23 01:21:00,32.0,32.0,-100.00,SSW,210,0.0,1.0,100,0.00,,,0.00,0.000000,,2013-02-23 10:21:00,
2013-02-23 01:42:00,32.0,32.0,-100.00,NW,306,0.0,2.0,100,0.00,,,0.00,0.000000,,2013-02-23 10:42:00,
2013-02-23 01:52:00,32.0,32.0,-100.00,NW,306,0.0,2.0,100,0.00,,,0.00,0.000000,,2013-02-23 10:52:00,
2013-02-23 02:02:00,32.0,32.0,-100.00,NW,306,0.0,2.0,100,0.00,,,0.00,0.000000,,2013-02-23 11:02:00,
2013-02-23 02:11:00,32.0,32.0,-100.00,NW,306,0.0,2.0,100,0.00,,,0.00,0.000000,,2013-02-23 11:11:00,
2013-02-23 02:21:00,32.0,32.0,-100.00,NW,306,0.0,2.0,100,0.00,,,0.00,0.000000,,2013-02-23 11:21:00,
2013-02-23 02:42:00,32.0,32.0,-100.00,WNW,294,0.0,2.0,100,0.00,,,0.00,0.000000,,2013-02-23 11:42:00,
2013-02-23 02:52:00,32.0,32.0,-100.00,WNW,294,0.0,2.0,100,0.00,,,0.00,0.000000,,2013-02-23 11:52:00,
2013-02-23 03:01:00,32.0,32.0,-100.00,WNW,294,0.0,2.0,100,0.00,,,0.00,0.000000,,2013-02-23 12:01:00,
2013-02-23 03:11:00,32.0,32.0,-100.00,WNW,294,0.0,2.0,100,0.00,,,0.00,0.000000,,2013-02-23 12:11:00,
2013-02-23 03:21:00,32.0,32.0,-100.00,WNW,294,0.0,2.0,100,0.00,,,0.00,0.000000,,2013-02-23 12:21:00,
2013-02-23 03:42:00,32.0,31.0,-100.00,SSE,165,1.0,5.0,96,0.00,,,0.00,0.000000,,2013-02-23 12:42:00,
2013-02-23 03:52:00,32.0,31.0,-100.00,SSE,165,1.0,5.0,96,0.00,,,0.00,0.000000,,2013-02-23 12:52:00,
2013-02-23 04:01:00,32.0,31.0,-100.00,SSE,165,1.0,5.0,96,0.00,,,0.00,0.000000,,2013-02-23 13:01:00,
2013-02-23 04:11:00,32.0,31.0,-100.00,SSE,165,1.0,5.0,96,0.00,,,0.00,0.000000,,2013-02-23 13:11:00,
2013-02-23 04:22:00,32.0,31.0,-100.00,SSE,165,1.0,5.0,96,0.00,,,0.00,0.000000,,2013-02-23 13:22:00,
2013-02-23 04:42:00,36.0,28.0,-100.00,WNW,301,4.0,7.0,73,0.00,,,0.00,0.000000,,2013-02-23 13:42:00,
2013-02-23 04:52:00,36.0,28.0,-100.00,WNW,301,4.0,7.0,73,0.00,,,0.00,0.000000,,2013-02-23 13:52:00,
2013-02-23 05:02:00,36.0,28.0,-100.00,WNW,301,4.0,7.0,73,0.00,,,0.00,0.000000,,2013-02-23 14:02:00,
2013-02-23 05:11:00,36.0,28.0,-100.00,WNW,301,4.0,7.0,73,0.00,,,0.00,0.000000,,2013-02-23 14:11:00,
2013-02-23 05:21:00,36.0,28.0,-100.00,WNW,301,4.0,7.0,73,0.00,,,0.00,0.000000,,2013-02-23 14:21:00,
2013-02-23 05:42:00,36.0,26.0,-100.00,NW,307,3.0,8.0,68,0.00,,,0.00,0.000000,,2013-02-23 14:42:00,
2013-02-23 05:52:00,36.0,26.0,-100.00,NW,307,3.0,8.0,68,0.00,,,0.00,0.000000,,2013-02-23 14:52:00,
2013-02-23 06:01:00,36.0,26.0,-100.00,NW,307,3.0,8.0,68,0.00,,,0.00,0.000000,,2013-02-23 15:01:00,
2013-02-23 06:11:00,36.0,26.0,-100.00,NW,307,3.0,8.0,68,0.00,,,0.00,0.000000,,2013-02-23 15:11:00,
2013-02-23 06:21:00,36.0,26.0,-100.00,NW,307,3.0,8.0,68,0.00,,,0.00,0.000000,,2013-02-23 15:21:00,
2013-02-23 06:42:00,36.0,25.0,-100.00,NW,315,2.0,6.0,66,0.00,,,0.00,0.000000,,2013-02-23 15:42:00,
2013-02-23 06:52:00,36.0,25.0,-100.00,NW,315,2.0,6.0,66,0.00,,,0.00,0.000000,,2013-02-23 15:52:00,
2013-02-23 07:01:00,36.0,25.0,-100.00,NW,315,2.0,6.0,66,0.00,,,0.00,0.000000,,2013-02-23 16:01:00,
2013-02-23 07:11:00,36.0,25.0,-100.00,NW,315,2.0,6.0,66,0.00,,,0.00,0.000000,,2013-02-23 16:11:00,
2013-02-23 07:21:00,36.0,25.0,-100.00,NW,315,2.0,6.0,66,0.00,,,0.00,0.000000,,2013-02-23 16:21:00,
2013-02-23 07:42:00,34.0,26.0,-100.00,NW,308,3.0,8.0,72,0.00,,,0.00,0.000000,,2013-02-23 16:42:00,
2013-02-23 07:52:00,34.0,26.0,-100.00,NW,308,3.0,8.0,72,0.00,,,0.00,0.000000,,2013-02-23 16:52:00,
2013-02-23 08:01:00,34.0,26.0,-100.00,NW,308,3.0,8.0,72,0.00,,,0.00,0.000000,,2013-02-23 17:01:00,
2013-02-23 08:11:00,34.0,26.0,-100.00,NW,308,3.0,8.0,72,0.00,,,0.00,0.000000,,2013-02-23 17:11:00,
2013-02-23 08:21:00,34.0,26.0,-100.00,NW,308,3.0,8.0,72,0.00,,,0.00,0.000000,,2013-02-23 17:21:00,
2013-02-23 08:42:00,36.0,26.0,-100.00,NW,316,3.0,7.0,67,0.00,,,0.00,9.000000,,2013-02-23 17:42:00,
2013-02-23 08:52:00,36.0,26.0,-100.00,NW,316,3.0,7.0,67,0.00,,,0.00,9.000000,,2013-02-23 17:52:00,
2013-02-23 09:01:00,36.0,26.0,-100.00,NW,316,3.0,7.0,67,0.00,,,0.00,9.000000,,2013-02-23 18:01:00,
2013-02-23 09:12:00,36.0,26.0,-100.00,NW,316,3.0,7.0,67,0.00,,,0.00,9.000000,,2013-02-23 18:12:00,
2013-02-23 09:21:00,36.0,26.0,-100.00,NW,316,3.0,7.0,67,0.00,,,0.00,9.000000,,2013-02-23 18:21:00,
2013-02-23 09:42:00,36.0,25.0,-100.00,NNW,327,3.0,7.0,65,0.00,,,0.00,61.000000,,2013-02-23 18:42:00,
2013-02-23 09:52:00,36.0,25.0,-100.00,NNW,327,3.0,7.0,65,0.00,,,0.00,61.000000,,2013-02-23 18:52:00,
2013-02-23 10:01:00,36.0,25.0,-100.00,NNW,327,3.0,7.0,65,0.00,,,0.00,61.000000,,2013-02-23 19:01:00,
2013-02-23 10:11:00,36.0,25.0,-100.00,NNW,327,3.0,7.0,65,0.00,,,0.00,61.000000,,2013-02-23 19:11:00,
2013-02-23 10:21:00,36.0,25.0,-100.00,NNW,327,3.0,7.0,65,0.00,,,0.00,61.000000,,2013-02-23 19:21:00,
2013-02-23 10:42:00,36.0,27.0,-100.00,NW,317,4.0,10.0,72,0.00,,,-99.99,90.000000,,2013-02-23 19:42:00,
2013-02-23 10:52:00,36.0,27.0,-100.00,NW,317,4.0,10.0,72,0.00,,,-99.99,90.000000,,2013-02-23 19:52:00,
2013-02-23 11:01:00,36.0,27.0,-100.00,NW,317,4.0,10.0,72,0.00,,,-99.99,90.000000,,2013-02-23 20:01:00,
2013-02-23 11:11:00,36.0,27.0,-100.00,NW,317,4.0,10.0,72,0.00,,,-99.99,90.000000,,2013-02-23 20:11:00,
2013-02-23 11:21:00,36.0,27.0,-100.00,NW,317,4.0,10.0,72,0.00,,,-99.99,90.000000,,2013-02-23 20:21:00,
2013-02-23 11:42:00,36.0,24.0,-100.00,NW,309,3.0,7.0,63,0.00,,,0.00,175.000000,,2013-02-23 20:42:00,
2013-02-23 11:52:00,36.0,24.0,-100.00,NW,309,3.0,7.0,63,0.00,,,0.00,175.000000,,2013-02-23 20:52:00,
2013-02-23 12:01:00,36.0,24.0,-100.00,NW,309,3.0,7.0,63,0.00,,,0.00,175.000000,,2013-02-23 21:01:00,
2013-02-23 12:11:00,36.0,24.0,-100.00,NW,309,3.0,7.0,63,0.00,,,0.00,175.000000,,2013-02-23 21:11:00,
2013-02-23 12:21:00,36.0,24.0,-100.00,NW,309,3.0,7.0,63,0.00,,,0.00,175.000000,,2013-02-23 21:21:00,
2013-02-23 12:42:00,37.0,26.0,-100.00,NW,311,4.0,9.0,64,0.00,,,0.00,209.000000,,2013-02-23 21:42:00,
2013-02-23 12:52:00,37.0,26.0,-100.00,NW,311,4.0,9.0,64,0.00,,,0.00,209.000000,,2013-02-23 21:52:00,
2013-02-23 13:01:00,37.0,26.0,-100.00,NW,311,4.0,9.0,64,0.00,,,0.00,209.000000,,2013-02-23 22:01:00,
2013-02-23 13:11:00,37.0,26.0,-100.00,NW,311,4.0,9.0,64,0.00,,,0.00,209.000000,,2013-02-23 22:11:00,
2013-02-23 13:21:00,37.0,26.0,-100.00,NW,311,4.0,9.0,64,0.00,,,0.00,209.000000,,2013-02-23 22:21:00,
2013-02-23 13:42:00,37.0,27.0,-100.00,NW,313,5.0,9.0,67,0.00,,,0.00,203.000000,,2013-02-23 22:42:00,
2013-02-23 13:52:00,37.0,27.0,-100.00,NW,313,5.0,9.0,67,0.00,,,0.00,203.000000,,2013-02-23 22:52:00,
2013-02-23 14:01:00,37.0,27.0,-100.00,NW,313,5.0,9.0,67,0.00,,,0.00,203.000000,,2013-02-23 23:01:00,
2013-02-23 14:11:00,37.0,27.0,-100.00,NW,313,5.0,9.0,67,0.00,,,0.00,203.000000,,2013-02-23 23:11:00,
2013-02-23 14:21:00,37.0,27.0,-100.00,NW,313,5.0,9.0,67,0.00,,,0.00,203.000000,,2013-02-23 23:21:00,
2013-02-23 14:42:00,37.0,28.0,-100.00,NW,314,5.0,9.0,68,0.00,,,0.00,191.000000,,2013-02-23 23:42:00,
2013-02-23 14:52:00,37.0,28.0,-100.00,NW,314,5.0,9.0,68,0.00,,,0.00,191.000000,,2013-02-23 23:52:00,
2013-02-23 15:01:00,37.0,28.0,-100.00,NW,314,5.0,9.0,68,0.00,,,0.00,191.000000,,2013-02-24 00:01:00,
2013-02-23 15:11:00,37.0,28.0,-100.00,NW,314,5.0,9.0,68,0.00,,,0.00,191.000000,,2013-02-24 00:11:00,
2013-02-23 15:21:00,37.0,28.0,-100.00,NW,314,5.0,9.0,68,0.00,,,0.00,191.000000,,2013-02-24 00:21:00,
2013-02-23 15:42:00,36.0,32.0,-100.00,NW,313,5.0,15.0,85,0.00,,,0.00,61.000000,,2013-02-24 00:42:00,
2013-02-23 15:52:00,36.0,32.0,-100.00,NW,313,5.0,15.0,85,0.00,,,0.00,61.000000,,2013-02-24 00:52:00,
2013-02-23 16:01:00,36.0,32.0,-100.00,NW,313,5.0,15.0,85,0.00,,,0.00,61.000000,,2013-02-24 01:01:00,
2013-02-23 16:11:00,36.0,32.0,-100.00,NW,313,5.0,15.0,85,0.00,,,0.00,61.000000,,2013-02-24 01:11:00,
2013-02-23 16:21:00,36.0,32.0,-100.00,NW,313,5.0,15.0,85,0.00,,,0.00,61.000000,,2013-02-24 01:21:00,
2013-02-23 16:42:00,36.0,28.0,-100.00,WNW,299,5.0,10.0,73,0.00,,,0.00,43.000000,,2013-02-24 01:42:00,
2013-02-23 16:52:00,36.0,28.0,-100.00,WNW,299,5.0,10.0,73,0.00,,,0.00,43.000000,,2013-02-24 01:52:00,
2013-02-23 17:01:00,36.0,28.0,-100.00,WNW,299,5.0,10.0,73,0.00,,,0.00,43.000000,,2013-02-24 02:01:00,
2013-02-23 17:11:00,36.0,28.0,-100.00,WNW,299,5.0,10.0,73,0.00,,,0.00,43.000000,,2013-02-24 02:11:00,
2013-02-23 17:21:00,36.0,28.0,-100.00,WNW,299,5.0,10.0,73,0.00,,,0.00,43.000000,,2013-02-24 02:21:00,
2013-02-23 17:42:00,37.0,28.0,-100.00,WNW,303,3.0,8.0,68,0.00,,,0.00,21.000000,,2013-02-24 02:42:00,
2013-02-23 17:52:00,37.0,28.0,-100.00,WNW,303,3.0,8.0,68,0.00,,,0.00,21.000000,,2013-02-24 02:52:00,
2013-02-23 18:01:00,37.0,28.0,-100.00,WNW,303,3.0,8.0,68,0.00,,,0.00,21.000000,,2013-02-24 03:01:00,
2013-02-23 18:11:00,37.0,28.0,-100.00,WNW,303,3.0,8.0,68,0.00,,,0.00,21.000000,,2013-02-24 03:11:00,
2013-02-23 18:21:00,37.0,28.0,-100.00,WNW,303,3.0,8.0,68,0.00,,,0.00,21.000000,,2013-02-24 03:21:00,
2013-02-23 18:42:00,37.0,27.0,-100.00,NW,316,3.0,8.0,66,0.00,,,0.00,1.000000,,2013-02-24 03:42:00,
2013-02-23 18:52:00,37.0,27.0,-100.00,NW,316,3.0,8.0,66,0.00,,,0.00,1.000000,,2013-02-24 03:52:00,
2013-02-23 19:01:00,37.0,27.0,-100.00,NW,316,3.0,8.0,66,0.00,,,0.00,1.000000,,2013-02-24 04:01:00,
2013-02-23 19:11:00,37.0,27.0,-100.00,NW,316,3.0,8.0,66,0.00,,,0.00,1.000000,,2013-02-24 04:11:00,
2013-02-23 19:21:00,37.0,27.0,-100.00,NW,316,3.0,8.0,66,0.00,,,0.00,1.000000,,2013-02-24 04:21:00,
2013-02-23 19:42:00,37.0,29.0,-100.00,NW,319,3.0,6.0,70,0.00,,,0.00,0.000000,,2013-02-24 04:42:00,
2013-02-23 19:52:00,37.0,29.0,-100.00,NW,319,3.0,6.0,70,0.00,,,0.00,0.000000,,2013-02-24 04:52:00,
2013-02-23 20:01:00,37.0,29.0,-100.00,NW,319,3.0,6.0,70,0.00,,,0.00,0.000000,,2013-02-24 05:01:00,
2013-02-23 20:11:00,37.0,29.0,-100.00,NW,319,3.0,6.0,70,0.00,,,0.00,0.000000,,2013-02-24 05:11:00,
2013-02-23 20:21:00,37.0,29.0,-100.00,NW,319,3.0,6.0,70,0.00,,,0.00,0.000000,,2013-02-24 05:21:00,
2013-02-23 20:42:00,37.0,27.0,-100.00,NW,319,3.0,7.0,65,0.00,,,0.00,0.000000,,2013-02-24 05:42:00,
2013-02-23 20:52:00,37.0,27.0,-100.00,NW,319,3.0,7.0,65,0.00,,,0.00,0.000000,,2013-02-24 05:52:00,
2013-02-23 21:01:00,37.0,27.0,-100.00,NW,319,3.0,7.0,65,0.00,,,0.00,0.000000,,2013-02-24 06:01:00,
2013-02-23 21:11:00,37.0,27.0,-100.00,NW,319,3.0,7.0,65,0.00,,,0.00,0.000000,,2013-02-24 06:11:00,
2013-02-23 21:21:00,37.0,27.0,-100.00,NW,319,3.0,7.0,65,0.00,,,0.00,0.000000,,2013-02-24 06:21:00,
2013-02-23 21:42:00,37.0,27.0,-100.00,NNW,329,3.0,7.0,65,0.00,,,0.00,0.000000,,2013-02-24 06:42:00,
2013-02-23 21:52:00,37.0,27.0,-100.00,NNW,329,3.0,7.0,65,0.00,,,0.00,0.000000,,2013-02-24 06:52:00,
2013-02-23 22:01:00,37.0,27.0,-100.00,NNW,329,3.0,7.0,65,0.00,,,0.00,0.000000,,2013-02-24 07:01:00,
2013-02-23 22:11:00,37.0,27.0,-100.00,NNW,329,3.0,7.0,65,0.00,,,0.00,0.000000,,2013-02-24 07:11:00,
2013-02-23 22:21:00,37.0,27.0,-100.00,NNW,329,3.0,7.0,65,0.00,,,0.00,0.000000,,2013-02-24 07:21:00,
2013-02-23 22:42:00,37.0,27.0,-100.00,NW,315,2.0,6.0,65,0.00,,,0.00,0.000000,,2013-02-24 07:42:00,
2013-02-23 22:52:00,37.0,27.0,-100.00,NW,315,2.0,6.0,65,0.00,,,0.00,0.000000,,2013-02-24 07:52:00,
2013-02-23 23:01:00,37.0,27.0,-100.00,NW,315,2.0,6.0,65,0.00,,,0.00,0.000000,,2013-02-24 08:01:00,
2013-02-23 23:11:00,37.0,27.0,-100.00,NW,315,2.0,6.0,65,0.00,,,0.00,0.000000,,2013-02-24 08:11:00,
2013-02-23 23:21:00,37.0,27.0,-100.00,NW,315,2.0,6.0,65,0.00,,,0.00,0.000000,,2013-02-24 08:21:00,
2013-02-23 23:42:00,37.0,28.0,-100.00,WNW,290,3.0,8.0,69,0.00,,,0.00,0.000000,,2013-02-24 08:42:00,
2013-02-23 23:54:00,37.0,28.0,-100.00,WNW,290,3.0,8.0,69,0.00,,,0.00,0.000000,,2013-02-24 08:54:00,